createdAt,value
2023-03-01T00:01:35.213Z,11.67
2023-03-01T00:04:02.933Z,11.78
2023-03-01T00:06:30.686Z,11.73
2023-03-01T00:08:58.453Z,11.34
2023-03-01T00:11:28.578Z,11.80
2023-03-01T00:13:58.789Z,11.20
2023-03-01T00:16:32.475Z,11.29
2023-03-01T00:19:00.245Z,11.65
2023-03-01T00:21:28.532Z,11.74
2023-03-01T00:23:56.236Z,11.91
2023-03-01T00:26:24.853Z,12.18
2023-03-01T00:28:53.180Z,11.64
2023-03-01T00:31:22.945Z,11.54
2023-03-01T00:33:58.675Z,11.73
2023-03-01T00:36:29.856Z,12.19
2023-03-01T00:38:57.826Z,11.96
2023-03-01T00:41:27.681Z,12.00
2023-03-01T00:43:56.086Z,12.04
2023-03-01T00:46:27.803Z,12.09
2023-03-01T00:48:55.622Z,12.31
2023-03-01T00:51:28.178Z,12.25
2023-03-01T00:53:59.996Z,12.23
2023-03-01T00:56:27.982Z,12.28
2023-03-01T00:58:55.747Z,12.06
2023-03-01T01:01:30.728Z,11.99
2023-03-01T01:04:07.860Z,12.26
2023-03-01T01:06:43.408Z,12.43
2023-03-01T01:09:19.510Z,12.19
2023-03-01T01:11:53.141Z,12.15
2023-03-01T01:14:21.655Z,12.22
2023-03-01T01:16:49.739Z,12.91
2023-03-01T01:19:18.245Z,12.03
2023-03-01T01:21:46.446Z,11.60
2023-03-01T01:24:13.878Z,11.97
2023-03-01T01:26:41.577Z,11.76
2023-03-01T01:29:09.969Z,11.68
2023-03-01T01:31:39.007Z,11.47
2023-03-01T01:34:07.996Z,11.34
2023-03-01T01:36:36.025Z,11.55
2023-03-01T01:39:03.670Z,11.96
2023-03-01T01:41:32.063Z,11.65
2023-03-01T01:44:21.998Z,11.75
2023-03-01T01:47:03.529Z,11.56
2023-03-01T01:49:55.592Z,11.90
2023-03-01T01:52:22.995Z,11.55
2023-03-01T01:55:09.323Z,11.73
2023-03-01T01:57:40.305Z,11.69
2023-03-01T02:00:14.641Z,11.75
2023-03-01T02:02:43.962Z,12.16
2023-03-01T02:05:34.318Z,11.76
2023-03-01T02:08:01.951Z,11.49
2023-03-01T02:10:30.265Z,11.35
2023-03-01T02:12:57.742Z,11.63
2023-03-01T02:15:25.247Z,11.88
2023-03-01T02:17:54.340Z,12.11
2023-03-01T02:20:28.499Z,12.61
2023-03-01T02:22:59.616Z,11.95
2023-03-01T02:25:33.397Z,11.71
2023-03-01T02:28:16.641Z,11.56
2023-03-01T02:31:05.199Z,11.09
2023-03-01T02:33:37.103Z,11.69
2023-03-01T02:36:07.934Z,11.37
2023-03-01T02:38:36.227Z,11.26
2023-03-01T02:41:05.427Z,11.22
2023-03-01T02:43:33.941Z,11.39
2023-03-01T02:46:08.950Z,11.36
2023-03-01T02:48:46.274Z,11.44
2023-03-01T02:51:35.615Z,11.99
2023-03-01T02:54:21.615Z,11.86
2023-03-01T02:56:49.957Z,11.21
2023-03-01T02:59:19.413Z,11.89
2023-03-01T03:01:47.610Z,10.97
2023-03-01T03:04:18.052Z,11.46
2023-03-01T03:06:46.832Z,11.32
2023-03-01T03:09:16.758Z,10.85
2023-03-01T03:11:45.422Z,11.31
2023-03-01T03:14:14.913Z,11.25
2023-03-01T03:16:43.532Z,11.56
2023-03-01T03:19:11.986Z,11.93
2023-03-01T03:21:39.490Z,11.60
2023-03-01T03:24:13.909Z,11.55
2023-03-01T03:26:41.813Z,11.61
2023-03-01T03:29:09.209Z,11.60
2023-03-01T03:31:36.869Z,11.48
2023-03-01T03:34:04.714Z,11.67
2023-03-01T03:36:33.258Z,11.74
2023-03-01T03:39:00.647Z,11.93
2023-03-01T03:41:28.347Z,11.72
2023-03-01T03:43:55.790Z,11.52
2023-03-01T03:46:23.232Z,11.55
2023-03-01T03:48:51.404Z,12.19
2023-03-01T03:51:19.228Z,11.67
2023-03-01T03:53:46.912Z,11.84
2023-03-01T03:56:14.641Z,11.88
2023-03-01T03:58:42.104Z,11.72
2023-03-01T04:01:09.543Z,11.78
2023-03-01T04:03:37.329Z,11.87
2023-03-01T04:06:07.742Z,11.72
2023-03-01T04:08:35.220Z,11.56
2023-03-01T04:11:24.727Z,11.71
2023-03-01T04:13:53.977Z,11.75
2023-03-01T04:16:22.159Z,11.65
2023-03-01T04:18:49.642Z,11.60
2023-03-01T04:21:17.168Z,11.65
2023-03-01T04:23:44.859Z,11.55
2023-03-01T04:26:12.287Z,11.73
2023-03-01T04:28:41.604Z,10.89
2023-03-01T04:31:15.093Z,10.93
2023-03-01T04:33:52.617Z,11.36
2023-03-01T04:36:23.791Z,11.88
2023-03-01T04:38:51.854Z,11.45
2023-03-01T04:41:21.055Z,11.34
2023-03-01T04:43:49.633Z,11.21
2023-03-01T04:46:19.906Z,11.19
2023-03-01T04:48:50.640Z,11.36
2023-03-01T04:51:19.368Z,10.96
2023-03-01T04:53:47.099Z,11.13
2023-03-01T04:56:15.284Z,10.91
2023-03-01T04:58:43.210Z,10.99
2023-03-01T05:01:18.656Z,11.51
2023-03-01T05:03:48.116Z,11.37
2023-03-01T05:06:16.879Z,11.51
2023-03-01T05:08:44.948Z,11.47
2023-03-01T05:11:13.516Z,11.53
2023-03-01T05:13:42.669Z,11.63
2023-03-01T05:16:13.911Z,11.55
2023-03-01T05:18:41.853Z,11.33
2023-03-01T05:21:11.493Z,11.55
2023-03-01T05:23:39.633Z,11.61
2023-03-01T05:26:16.147Z,11.41
2023-03-01T05:28:53.560Z,11.56
2023-03-01T05:31:21.293Z,11.60
2023-03-01T05:33:48.736Z,11.64
2023-03-01T05:36:16.154Z,11.50
2023-03-01T05:38:45.085Z,10.86
2023-03-01T05:41:16.411Z,11.10
2023-03-01T05:43:46.142Z,11.08
2023-03-01T05:46:16.212Z,11.03
2023-03-01T05:48:44.720Z,11.44
2023-03-01T05:51:13.056Z,11.51
2023-03-01T05:53:40.531Z,10.97
2023-03-01T05:56:08.518Z,11.29
2023-03-01T05:58:35.998Z,11.44
2023-03-01T06:01:03.399Z,11.02
2023-03-01T06:03:31.117Z,10.84
2023-03-01T06:05:59.362Z,11.30
2023-03-01T06:08:28.356Z,11.44
2023-03-01T06:10:57.638Z,11.18
2023-03-01T06:13:25.469Z,10.88
2023-03-01T06:15:53.202Z,10.97
2023-03-01T06:18:21.222Z,11.45
2023-03-01T06:20:56.832Z,11.23
2023-03-01T06:23:25.791Z,11.50
2023-03-01T06:25:53.559Z,10.91
2023-03-01T06:28:21.370Z,11.35
2023-03-01T06:30:50.334Z,11.30
2023-03-01T06:33:19.183Z,11.41
2023-03-01T06:35:49.692Z,11.55
2023-03-01T06:38:20.042Z,11.67
2023-03-01T06:40:53.103Z,11.30
2023-03-01T06:43:21.574Z,11.57
2023-03-01T06:45:49.097Z,11.67
2023-03-01T06:48:16.664Z,11.76
2023-03-01T06:50:44.500Z,11.29
2023-03-01T06:53:12.052Z,10.12
2023-03-01T06:55:39.546Z,10.98
2023-03-01T06:58:07.293Z,10.57
2023-03-01T07:00:34.816Z,11.13
2023-03-01T07:03:03.462Z,10.48
2023-03-01T07:05:32.118Z,9.90
2023-03-01T07:07:59.652Z,10.67
2023-03-01T07:10:27.215Z,11.44
2023-03-01T07:12:58.621Z,11.45
2023-03-01T07:15:27.529Z,11.72
2023-03-01T07:17:55.302Z,10.58
2023-03-01T07:20:25.628Z,10.80
2023-03-01T07:22:54.127Z,10.36
2023-03-01T07:25:21.964Z,10.94
2023-03-01T07:27:53.342Z,11.24
2023-03-01T07:30:21.973Z,11.56
2023-03-01T07:32:50.007Z,11.64
2023-03-01T07:35:17.618Z,11.03
2023-03-01T07:37:45.268Z,11.72
2023-03-01T07:40:13.388Z,11.77
2023-03-01T07:42:40.985Z,11.12
2023-03-01T07:45:09.046Z,11.58
2023-03-01T07:47:37.133Z,11.90
2023-03-01T07:50:05.017Z,11.64
2023-03-01T07:52:32.856Z,11.11
2023-03-01T07:55:00.558Z,11.59
2023-03-01T07:57:27.989Z,11.83
2023-03-01T07:59:55.402Z,12.16
2023-03-01T08:02:23.211Z,11.89
2023-03-01T08:04:50.899Z,12.00
2023-03-01T08:07:18.277Z,11.56
2023-03-01T08:09:45.979Z,11.11
2023-03-01T08:12:13.818Z,11.93
2023-03-01T08:14:41.202Z,11.77
2023-03-01T08:17:08.620Z,10.70
2023-03-01T08:19:36.607Z,10.94
2023-03-01T08:22:04.234Z,11.22
2023-03-01T08:24:31.617Z,12.03
2023-03-01T08:26:59.420Z,12.61
2023-03-01T08:29:26.823Z,12.05
2023-03-01T08:31:54.335Z,12.45
2023-03-01T08:34:22.226Z,12.33
2023-03-01T08:36:51.123Z,13.00
2023-03-01T08:39:20.142Z,12.98
2023-03-01T08:41:48.218Z,13.58
2023-03-01T08:44:17.645Z,14.14
2023-03-01T08:46:46.486Z,13.50
2023-03-01T08:49:15.489Z,14.46
2023-03-01T08:51:43.361Z,14.20
2023-03-01T08:54:12.521Z,14.40
2023-03-01T08:56:40.089Z,14.01
2023-03-01T08:59:07.604Z,14.06
2023-03-01T09:01:34.880Z,14.19
2023-03-01T09:04:02.373Z,14.61
2023-03-01T09:06:32.070Z,14.86
2023-03-01T09:08:59.505Z,14.83
2023-03-01T09:11:27.421Z,15.14
2023-03-01T09:13:54.618Z,14.73
2023-03-01T09:16:22.307Z,14.47
2023-03-01T09:18:51.147Z,14.48
2023-03-01T09:21:24.842Z,14.15
2023-03-01T09:23:58.499Z,14.49
2023-03-01T09:26:25.742Z,13.81
2023-03-01T09:28:54.308Z,13.55
2023-03-01T09:31:22.702Z,14.31
2023-03-01T09:33:50.756Z,14.49
2023-03-01T09:36:19.088Z,14.06
2023-03-01T09:38:46.840Z,14.62
2023-03-01T09:41:38.062Z,15.05
2023-03-01T09:44:32.390Z,15.45
2023-03-01T09:47:02.702Z,15.35
2023-03-01T09:49:34.752Z,14.72
2023-03-01T09:52:05.840Z,13.72
2023-03-01T09:54:33.511Z,14.74
2023-03-01T09:57:12.873Z,15.24
2023-03-01T09:59:59.506Z,14.79
2023-03-01T10:02:39.195Z,14.59
2023-03-01T10:05:18.819Z,13.46
2023-03-01T10:07:56.823Z,14.79
2023-03-01T10:10:30.115Z,14.44
2023-03-01T10:13:05.813Z,14.48
2023-03-01T10:15:40.009Z,14.95
2023-03-01T10:18:18.356Z,16.19
2023-03-01T10:20:59.926Z,15.79
2023-03-01T10:23:29.214Z,14.75
2023-03-01T10:26:18.490Z,16.00
2023-03-01T10:29:11.323Z,16.25
2023-03-01T10:31:50.220Z,16.25
2023-03-01T10:34:21.916Z,17.02
2023-03-01T10:36:52.065Z,15.96
2023-03-01T10:39:21.992Z,15.83
2023-03-01T10:42:02.350Z,16.63
2023-03-01T10:44:43.607Z,16.11
2023-03-01T10:47:29.474Z,16.54
2023-03-01T10:50:02.858Z,16.67
2023-03-01T10:52:36.616Z,16.63
2023-03-01T10:55:28.812Z,17.16
2023-03-01T10:58:15.729Z,16.98
2023-03-01T11:01:01.278Z,16.71
2023-03-01T11:03:39.839Z,16.86
2023-03-01T11:06:22.838Z,16.38
2023-03-01T11:08:51.658Z,15.89
2023-03-01T11:11:32.639Z,16.16
2023-03-01T11:14:27.230Z,15.54
2023-03-01T11:17:06.826Z,16.01
2023-03-01T11:19:34.597Z,16.19
2023-03-01T11:22:15.388Z,16.43
2023-03-01T11:24:46.317Z,16.08
2023-03-01T11:27:21.030Z,15.99
2023-03-01T11:30:14.586Z,17.10
2023-03-01T11:32:44.852Z,17.34
2023-03-01T11:35:19.382Z,17.03
2023-03-01T11:38:00.355Z,17.18
2023-03-01T11:40:50.118Z,17.47
2023-03-01T11:43:25.681Z,16.62
2023-03-01T11:46:20.615Z,16.37
2023-03-01T11:48:59.999Z,16.20
2023-03-01T11:51:55.644Z,16.59
2023-03-01T11:54:28.782Z,16.81
2023-03-01T11:57:01.845Z,17.07
2023-03-01T11:59:29.219Z,18.47
2023-03-01T12:02:06.494Z,18.55
2023-03-01T12:04:49.801Z,16.68
2023-03-01T12:07:36.167Z,16.31
2023-03-01T12:10:22.623Z,16.06
2023-03-01T12:12:49.928Z,17.47
2023-03-01T12:15:32.505Z,17.18
2023-03-01T12:18:08.559Z,17.53
2023-03-01T12:20:52.727Z,17.86
2023-03-01T12:23:28.223Z,17.64
2023-03-01T12:26:18.717Z,17.28
2023-03-01T12:28:54.788Z,17.86
2023-03-01T12:31:45.881Z,17.54
2023-03-01T12:34:30.728Z,17.52
2023-03-01T12:37:10.232Z,15.96
2023-03-01T12:39:48.093Z,17.17
2023-03-01T12:42:15.641Z,16.79
2023-03-01T12:44:49.326Z,16.03
2023-03-01T12:47:21.287Z,15.56
2023-03-01T12:50:09.116Z,16.43
2023-03-01T12:52:38.220Z,16.57
2023-03-01T12:55:07.987Z,15.62
2023-03-01T12:57:40.591Z,16.36
2023-03-01T13:00:11.035Z,17.19
2023-03-01T13:02:44.610Z,17.17
2023-03-01T13:05:25.752Z,17.39
2023-03-01T13:07:56.874Z,17.83
2023-03-01T13:10:27.578Z,18.05
2023-03-01T13:12:57.878Z,18.15
2023-03-01T13:15:25.559Z,17.10
2023-03-01T13:18:12.772Z,18.31
2023-03-01T13:20:43.797Z,17.77
2023-03-01T13:23:20.183Z,18.53
2023-03-01T13:26:14.520Z,17.64
2023-03-01T13:28:44.918Z,17.39
2023-03-01T13:31:18.309Z,17.94
2023-03-01T13:33:52.908Z,18.17
2023-03-01T13:36:30.236Z,18.40
2023-03-01T13:38:58.503Z,18.47
2023-03-01T13:41:44.541Z,17.51
2023-03-01T13:44:25.396Z,17.64
2023-03-01T13:46:55.128Z,17.60
2023-03-01T13:49:24.536Z,17.84
2023-03-01T13:51:52.843Z,18.36
2023-03-01T13:54:30.808Z,18.02
2023-03-01T13:56:59.629Z,18.66
2023-03-01T13:59:30.336Z,19.03
2023-03-01T14:02:02.289Z,20.14
2023-03-01T14:04:36.900Z,20.08
2023-03-01T14:07:19.049Z,18.65
2023-03-01T14:09:53.491Z,19.46
2023-03-01T14:12:46.525Z,19.08
2023-03-01T14:15:26.344Z,18.31
2023-03-01T14:18:05.405Z,18.28
2023-03-01T14:20:38.417Z,17.67
2023-03-01T14:23:12.861Z,18.04
2023-03-01T14:25:40.480Z,18.55
2023-03-01T14:28:27.680Z,18.33
2023-03-01T14:30:56.254Z,18.51
2023-03-01T14:33:30.829Z,18.59
2023-03-01T14:36:05.843Z,18.57
2023-03-01T14:38:39.469Z,17.01
2023-03-01T14:41:10.573Z,17.35
2023-03-01T14:43:40.269Z,18.40
2023-03-01T14:46:34.282Z,18.28
2023-03-01T14:49:18.738Z,17.01
2023-03-01T14:52:06.562Z,17.99
2023-03-01T14:54:44.145Z,18.62
2023-03-01T14:57:17.098Z,18.75
2023-03-01T14:59:46.816Z,17.47
2023-03-01T15:02:18.574Z,17.56
2023-03-01T15:05:02.173Z,17.69
2023-03-01T15:07:35.728Z,17.98
2023-03-01T15:10:03.950Z,18.25
2023-03-01T15:12:32.557Z,18.57
2023-03-01T15:15:04.748Z,18.66
2023-03-01T15:17:32.381Z,18.56
2023-03-01T15:19:59.698Z,17.17
2023-03-01T15:22:27.294Z,16.25
2023-03-01T15:24:54.903Z,16.00
2023-03-01T15:27:23.346Z,16.09
2023-03-01T15:29:57.204Z,16.83
2023-03-01T15:32:30.151Z,17.14
2023-03-01T15:34:58.237Z,17.38
2023-03-01T15:37:34.852Z,17.63
2023-03-01T15:40:02.511Z,17.82
2023-03-01T15:42:30.221Z,18.19
2023-03-01T15:45:11.167Z,17.96
2023-03-01T15:47:40.347Z,17.87
2023-03-01T15:50:27.881Z,18.46
2023-03-01T15:52:55.585Z,18.31
2023-03-01T15:55:30.423Z,18.30
2023-03-01T15:58:11.877Z,18.22
2023-03-01T16:00:46.310Z,18.23
2023-03-01T16:03:25.834Z,18.20
2023-03-01T16:05:53.009Z,18.24
2023-03-01T16:08:20.351Z,18.15
2023-03-01T16:10:49.416Z,18.23
2023-03-01T16:13:18.825Z,18.38
2023-03-01T16:15:46.133Z,18.18
2023-03-01T16:18:14.093Z,17.97
2023-03-01T16:20:41.764Z,17.90
2023-03-01T16:23:09.844Z,18.11
2023-03-01T16:25:37.745Z,17.55
2023-03-01T16:28:09.778Z,17.26
2023-03-01T16:30:38.698Z,17.21
2023-03-01T16:33:25.325Z,16.86
2023-03-01T16:35:57.782Z,16.82
2023-03-01T16:38:25.439Z,17.13
2023-03-01T16:40:52.984Z,17.36
2023-03-01T16:43:20.632Z,17.08
2023-03-01T16:45:47.880Z,16.26
2023-03-01T16:48:15.840Z,16.14
2023-03-01T16:50:45.027Z,16.06
2023-03-01T16:53:12.322Z,15.18
2023-03-01T16:55:46.602Z,14.41
2023-03-01T16:58:16.462Z,14.74
2023-03-01T17:00:44.108Z,15.28
2023-03-01T17:03:11.520Z,13.56
2023-03-01T17:05:41.548Z,11.97
2023-03-01T17:08:09.037Z,11.37
2023-03-01T17:10:36.259Z,11.01
2023-03-01T17:13:04.551Z,10.80
2023-03-01T17:15:31.969Z,10.84
2023-03-01T17:18:01.880Z,10.47
2023-03-01T17:20:29.532Z,10.38
2023-03-01T17:22:57.062Z,12.90
2023-03-01T17:25:24.921Z,13.15
2023-03-01T17:27:53.104Z,12.82
2023-03-01T17:30:20.897Z,11.80
2023-03-01T17:32:48.922Z,11.67
2023-03-01T17:35:17.287Z,11.92
2023-03-01T17:37:47.646Z,11.68
2023-03-01T17:40:15.760Z,11.32
2023-03-01T17:42:44.279Z,10.77
2023-03-01T17:45:12.229Z,11.31
2023-03-01T17:47:41.071Z,11.40
2023-03-01T17:50:09.959Z,11.17
2023-03-01T17:52:38.138Z,11.00
2023-03-01T17:55:06.355Z,11.64
2023-03-01T17:57:34.100Z,11.96
2023-03-01T18:00:01.475Z,11.09
2023-03-01T18:02:38.825Z,10.12
2023-03-01T18:05:08.411Z,11.62
2023-03-01T18:07:36.382Z,11.70
2023-03-01T18:10:04.245Z,10.97
2023-03-01T18:12:32.988Z,9.52
2023-03-01T18:15:00.846Z,8.55
2023-03-01T18:17:29.820Z,8.24
2023-03-01T18:19:58.938Z,7.85
2023-03-01T18:22:27.556Z,7.80
2023-03-01T18:24:55.713Z,7.70
2023-03-01T18:27:26.955Z,8.37
2023-03-01T18:29:55.270Z,8.37
2023-03-01T18:32:24.167Z,9.43
2023-03-01T18:34:52.353Z,10.18
2023-03-01T18:37:20.241Z,10.37
2023-03-01T18:39:51.449Z,10.00
2023-03-01T18:42:22.418Z,10.41
2023-03-01T18:44:51.039Z,9.51
2023-03-01T18:47:18.421Z,10.34
2023-03-01T18:49:48.087Z,11.21
2023-03-01T18:52:16.169Z,10.21
2023-03-01T18:54:45.394Z,11.48
2023-03-01T18:57:13.517Z,10.79
2023-03-01T18:59:41.877Z,10.71
2023-03-01T19:02:12.281Z,10.21
2023-03-01T19:04:40.990Z,8.81
2023-03-01T19:07:09.334Z,8.35
2023-03-01T19:09:37.344Z,8.28
2023-03-01T19:12:06.657Z,8.68
2023-03-01T19:14:35.867Z,9.09
2023-03-01T19:17:04.592Z,7.96
2023-03-01T19:19:33.098Z,6.89
2023-03-01T19:22:06.033Z,5.86
2023-03-01T19:24:38.913Z,5.95
2023-03-01T19:27:08.647Z,5.76
2023-03-01T19:29:36.839Z,6.20
2023-03-01T19:32:05.179Z,6.80
2023-03-01T19:34:33.389Z,7.22
2023-03-01T19:37:01.606Z,6.81
2023-03-01T19:39:29.983Z,6.57
2023-03-01T19:41:59.998Z,6.70
2023-03-01T19:44:28.589Z,7.37
2023-03-01T19:46:59.878Z,7.05
2023-03-01T19:49:30.275Z,7.21
2023-03-01T19:51:58.676Z,7.71
2023-03-01T19:54:27.456Z,9.04
2023-03-01T19:56:56.684Z,8.31
2023-03-01T19:59:25.948Z,7.90
2023-03-01T20:01:55.210Z,8.53
2023-03-01T20:04:23.951Z,8.63
2023-03-01T20:06:51.970Z,9.08
2023-03-01T20:09:22.642Z,9.51
2023-03-01T20:11:51.955Z,9.29
2023-03-01T20:14:23.241Z,8.62
2023-03-01T20:16:53.045Z,8.18
2023-03-01T20:19:24.427Z,9.07
2023-03-01T20:21:53.661Z,7.86
2023-03-01T20:24:23.013Z,10.41
2023-03-01T20:26:51.437Z,11.94
2023-03-01T20:29:20.535Z,11.71
2023-03-01T20:31:49.201Z,11.40
2023-03-01T20:34:17.628Z,7.23
2023-03-01T20:36:46.416Z,7.37
2023-03-01T20:39:14.841Z,7.34
2023-03-01T20:41:45.253Z,7.02
2023-03-01T20:44:14.679Z,6.50
2023-03-01T20:46:43.109Z,6.43
2023-03-01T20:49:11.597Z,6.17
2023-03-01T20:51:41.429Z,6.45
2023-03-01T20:54:10.861Z,5.97
2023-03-01T20:56:38.716Z,5.85
2023-03-01T20:59:09.387Z,6.47
2023-03-01T21:01:38.728Z,6.37
2023-03-01T21:04:06.886Z,6.03
2023-03-01T21:06:35.521Z,5.56
2023-03-01T21:09:03.804Z,5.55
2023-03-01T21:11:31.567Z,5.05
2023-03-01T21:13:59.244Z,4.31
2023-03-01T21:16:27.004Z,4.22
2023-03-01T21:18:55.068Z,4.01
2023-03-01T21:21:23.373Z,4.24
2023-03-01T21:23:51.112Z,4.31
2023-03-01T21:26:19.955Z,4.73
2023-03-01T21:28:50.216Z,4.95
2023-03-01T21:31:22.817Z,5.43
2023-03-01T21:33:51.812Z,5.13
2023-03-01T21:36:20.247Z,5.19
2023-03-01T21:38:48.915Z,4.92
2023-03-01T21:41:21.032Z,4.54
2023-03-01T21:43:49.133Z,4.29
2023-03-01T21:46:17.686Z,4.12
2023-03-01T21:48:45.819Z,4.09
2023-03-01T21:51:14.883Z,4.07
2023-03-01T21:53:42.268Z,4.05
2023-03-01T21:56:10.296Z,4.74
2023-03-01T21:58:37.819Z,5.09
2023-03-01T22:01:08.657Z,4.96
2023-03-01T22:03:45.096Z,5.14
2023-03-01T22:06:19.189Z,5.64
2023-03-01T22:08:55.707Z,7.35
2023-03-01T22:11:23.110Z,8.39
2023-03-01T22:13:52.329Z,7.23
2023-03-01T22:16:20.376Z,6.71
2023-03-01T22:18:47.705Z,6.78
2023-03-01T22:21:15.506Z,7.16
2023-03-01T22:23:42.716Z,7.75
2023-03-01T22:26:16.682Z,9.13
2023-03-01T22:28:45.533Z,10.27
2023-03-01T22:31:12.965Z,11.43
2023-03-01T22:33:40.161Z,10.86
2023-03-01T22:36:07.827Z,6.65
2023-03-01T22:38:35.562Z,5.53
2023-03-01T22:41:04.668Z,5.40
2023-03-01T22:43:32.374Z,6.53
2023-03-01T22:45:59.703Z,7.31
2023-03-01T22:48:26.951Z,6.33
2023-03-01T22:50:54.428Z,5.95
2023-03-01T22:53:21.652Z,6.15
2023-03-01T22:55:48.820Z,6.06
2023-03-01T22:58:16.281Z,6.36
2023-03-01T23:00:43.567Z,6.23
2023-03-01T23:03:10.889Z,4.94
2023-03-01T23:05:38.456Z,5.49
2023-03-01T23:08:05.639Z,7.21
2023-03-01T23:10:32.781Z,8.46
2023-03-01T23:13:00.221Z,8.21
2023-03-01T23:15:27.397Z,8.74
2023-03-01T23:17:54.553Z,9.78
2023-03-01T23:20:23.002Z,8.29
2023-03-01T23:22:50.177Z,6.49
2023-03-01T23:25:17.422Z,5.92
2023-03-01T23:27:44.843Z,7.07
2023-03-01T23:30:12.568Z,6.54
2023-03-01T23:32:40.813Z,5.58
2023-03-01T23:35:08.994Z,5.01
2023-03-01T23:37:36.579Z,5.06
2023-03-01T23:40:06.157Z,6.21
2023-03-01T23:42:34.206Z,7.34
2023-03-01T23:45:01.437Z,7.15
2023-03-01T23:47:28.611Z,6.78
2023-03-01T23:49:57.339Z,6.83
2023-03-01T23:52:24.583Z,6.39
2023-03-01T23:54:52.982Z,7.82
2023-03-01T23:57:20.482Z,7.93
2023-03-01T23:59:47.626Z,8.41
